<?xml version='1.0' encoding='UTF-8'?><gpx version="1.1" creator="JPX - https://github.com/jenetics/jpx" xmlns="http://www.topografix.com/GPX/1/1"><trk><trkseg><trkpt lat="45.79094193608165" lon="11.571561314323011"><ele>804.9999999999999</ele><time>2026-05-01T11:43:27.01Z</time></trkpt><trkpt lat="45.79089219157796" lon="11.571501325346551"><ele>805.0</ele><time>2026-05-01T11:43:29.01Z</time></trkpt><trkpt lat="45.7908479387419" lon="11.57157831386066"><ele>805.0</ele><time>2026-05-01T11:43:31.01Z</time></trkpt><trkpt lat="45.790784389353966" lon="11.571572410726118"><ele>805.0</ele><time>2026-05-01T11:43:33.01Z</time></trkpt><trkpt lat="45.79073335838581" lon="11.571487405715683"><ele>804.9999999999999</ele><time>2026-05-01T11:43:35.01Z</time></trkpt><trkpt lat="45.79066938225337" lon="11.571401187219399"><ele>805.0</ele><time>2026-05-01T11:43:37.01Z</time></trkpt><trkpt lat="45.79059176032922" lon="11.571320834480419"><ele>805.0</ele><time>2026-05-01T11:43:39.01Z</time></trkpt><trkpt lat="45.7905045431123" lon="11.571269555110314"><ele>805.0</ele><time>2026-05-01T11:43:42.01Z</time></trkpt><trkpt lat="45.790433171974364" lon="11.571212851935613"><ele>805.0</ele><time>2026-05-01T11:43:43.01Z</time></trkpt><trkpt lat="45.79148970874392" lon="11.56950085718556"><ele>798.0</ele><time>2026-05-01T11:44:18.008Z</time></trkpt><trkpt lat="45.79155702937703" lon="11.569445157004798"><ele>791.0</ele><time>2026-05-01T11:44:19.008Z</time></trkpt><trkpt lat="45.791621559243524" lon="11.56941613566306"><ele>784.0</ele><time>2026-05-01T11:44:20.008Z</time></trkpt><trkpt lat="45.791708142584724" lon="11.569430439348995"><ele>777.0</ele><time>2026-05-01T11:44:22.008Z</time></trkpt><trkpt lat="45.791931929320306" lon="11.569458867410544"><ele>774.2</ele><time>2026-05-01T11:44:26.008Z</time></trkpt><trkpt lat="45.79201174864086" lon="11.569487017985852"><ele>771.4000000000001</ele><time>2026-05-01T11:44:27.008Z</time></trkpt><trkpt lat="45.792127177567664" lon="11.569496087855871"><ele>768.5999999999999</ele><time>2026-05-01T11:44:29.008Z</time></trkpt><trkpt lat="45.79221655775941" lon="11.569512984368496"><ele>765.8</ele><time>2026-05-01T11:44:31.008Z</time></trkpt><trkpt lat="45.79228850847475" lon="11.569464378162657"><ele>763.0</ele><time>2026-05-01T11:44:33.008Z</time></trkpt><trkpt lat="45.79238483490469" lon="11.569409592735376"><ele>763.0</ele><time>2026-05-01T11:44:35.008Z</time></trkpt><trkpt lat="45.79244767217335" lon="11.5693871689205"><ele>763.0</ele><time>2026-05-01T11:44:36.008Z</time></trkpt><trkpt lat="45.7925749955004" lon="11.569338152297458"><ele>763.0</ele><time>2026-05-01T11:44:38.008Z</time></trkpt><trkpt lat="45.79265223874837" lon="11.56931765300624"><ele>763.0</ele><time>2026-05-01T11:44:39.008Z</time></trkpt><trkpt lat="45.792725007795845" lon="11.569284261239702"><ele>763.0</ele><time>2026-05-01T11:44:40.008Z</time></trkpt><trkpt lat="45.79280170260404" lon="11.56924200755437"><ele>763.0</ele><time>2026-05-01T11:44:41.008Z</time></trkpt><trkpt lat="45.79290064199446" lon="11.569206439380512"><ele>761.75</ele><time>2026-05-01T11:44:43.008Z</time></trkpt><trkpt lat="45.79312613445468" lon="11.569024916657725"><ele>760.5</ele><time>2026-05-01T11:44:51.009Z</time></trkpt><trkpt lat="45.79319691037743" lon="11.568962100174794"><ele>759.25</ele><time>2026-05-01T11:44:53.009Z</time></trkpt><trkpt lat="45.793284887933126" lon="11.56887837553888"><ele>758.0</ele><time>2026-05-01T11:44:56.009Z</time></trkpt><trkpt lat="45.79336250135665" lon="11.568822702168047"><ele>758.0</ele><time>2026-05-01T11:44:58.009Z</time></trkpt><trkpt lat="45.79344156607656" lon="11.568766732125182"><ele>758.0</ele><time>2026-05-01T11:45:00.009Z</time></trkpt><trkpt lat="45.79448170118302" lon="11.568708202015289"><ele>753.25</ele><time>2026-05-01T11:45:19.009Z</time></trkpt><trkpt lat="45.794682768319404" lon="11.568727576253025"><ele>748.5</ele><time>2026-05-01T11:45:24.009Z</time></trkpt><trkpt lat="45.79477401839819" lon="11.568854467001128"><ele>743.75</ele><time>2026-05-01T11:45:26.009Z</time></trkpt><trkpt lat="45.79485082478842" lon="11.568956971567713"><ele>739.0</ele><time>2026-05-01T11:45:28.009Z</time></trkpt><trkpt lat="45.794911022998065" lon="11.569002364579662"><ele>739.0</ele><time>2026-05-01T11:45:29.009Z</time></trkpt><trkpt lat="45.79498516029781" lon="11.569024918423045"><ele>739.0</ele><time>2026-05-01T11:45:30.009Z</time></trkpt><trkpt lat="45.79506363199317" lon="11.569057167851648"><ele>739.0</ele><time>2026-05-01T11:45:31.009Z</time></trkpt><trkpt lat="45.79512804276137" lon="11.569087068532813"><ele>739.0</ele><time>2026-05-01T11:45:32.009Z</time></trkpt><trkpt lat="45.7952516973042" lon="11.569182793632985"><ele>739.0</ele><time>2026-05-01T11:45:34.009Z</time></trkpt><trkpt lat="45.79531413645144" lon="11.569229114585312"><ele>739.0</ele><time>2026-05-01T11:45:35.009Z</time></trkpt><trkpt lat="45.79538035044084" lon="11.569256278135983"><ele>739.3333333333334</ele><time>2026-05-01T11:45:36.009Z</time></trkpt><trkpt lat="45.79545267211298" lon="11.569282239728832"><ele>739.6666666666667</ele><time>2026-05-01T11:45:37.009Z</time></trkpt><trkpt lat="45.79556226100117" lon="11.569311485362505"><ele>740.0</ele><time>2026-05-01T11:45:39.009Z</time></trkpt><trkpt lat="45.79562678604663" lon="11.569316260008648"><ele>740.3333333333334</ele><time>2026-05-01T11:45:40.009Z</time></trkpt><trkpt lat="45.79572753362261" lon="11.569300624861595"><ele>740.6666666666666</ele><time>2026-05-01T11:45:42.009Z</time></trkpt><trkpt lat="45.79579599434066" lon="11.569386322799861"><ele>741.0</ele><time>2026-05-01T11:45:45.009Z</time></trkpt><trkpt lat="45.79580381988541" lon="11.569493667386093"><ele>740.1666666666666</ele><time>2026-05-01T11:45:47.009Z</time></trkpt><trkpt lat="45.7957934126779" lon="11.569598267438383"><ele>739.3333333333334</ele><time>2026-05-01T11:45:49.009Z</time></trkpt><trkpt lat="45.79583745950936" lon="11.56966750306127"><ele>738.5</ele><time>2026-05-01T11:45:51.009Z</time></trkpt><trkpt lat="45.795874161467836" lon="11.569756945748837"><ele>737.6666666666667</ele><time>2026-05-01T11:45:53.009Z</time></trkpt><trkpt lat="45.79592163677526" lon="11.569902670050226"><ele>736.8333333333334</ele><time>2026-05-01T11:45:55.009Z</time></trkpt><trkpt lat="45.79595308105923" lon="11.570005462659147"><ele>736.0</ele><time>2026-05-01T11:45:56.009Z</time></trkpt><trkpt lat="45.79598549322081" lon="11.570095719768402"><ele>738.6666666666667</ele><time>2026-05-01T11:45:57.009Z</time></trkpt><trkpt lat="45.79602016329878" lon="11.57020508711467"><ele>741.3333333333334</ele><time>2026-05-01T11:45:58.009Z</time></trkpt><trkpt lat="45.79604935831955" lon="11.570309105121398"><ele>744.0</ele><time>2026-05-01T11:45:59.006Z</time></trkpt><trkpt lat="45.796072551592296" lon="11.570439282310003"><ele>746.6666666666666</ele><time>2026-05-01T11:46:00.007Z</time></trkpt><trkpt lat="45.79609669543085" lon="11.570545845178854"><ele>749.3333333333333</ele><time>2026-05-01T11:46:01.007Z</time></trkpt><trkpt lat="45.79611960011589" lon="11.570642131512125"><ele>752.0</ele><time>2026-05-01T11:46:02.006Z</time></trkpt><trkpt lat="45.79612400246499" lon="11.57076630186396"><ele>752.0</ele><time>2026-05-01T11:46:03.007Z</time></trkpt><trkpt lat="45.79618521752007" lon="11.570980389677848"><ele>752.0</ele><time>2026-05-01T11:46:04.007Z</time></trkpt><trkpt lat="45.796200752023054" lon="11.571138426582598"><ele>752.0</ele><time>2026-05-01T11:46:05.006Z</time></trkpt><trkpt lat="45.79619347535581" lon="11.57128225524373"><ele>752.0</ele><time>2026-05-01T11:46:06.007Z</time></trkpt><trkpt lat="45.796209405715466" lon="11.57144570253455"><ele>750.25</ele><time>2026-05-01T11:46:08.007Z</time></trkpt><trkpt lat="45.796268967273356" lon="11.571648857392521"><ele>748.5</ele><time>2026-05-01T11:46:10.006Z</time></trkpt><trkpt lat="45.79632856569435" lon="11.57175014008379"><ele>746.75</ele><time>2026-05-01T11:46:11.007Z</time></trkpt><trkpt lat="45.79637991463787" lon="11.571901562887431"><ele>745.0</ele><time>2026-05-01T11:46:12.007Z</time></trkpt><trkpt lat="45.79640234112104" lon="11.57206413770263"><ele>743.8</ele><time>2026-05-01T11:46:13.007Z</time></trkpt><trkpt lat="45.79647413210732" lon="11.572202709402086"><ele>742.6</ele><time>2026-05-01T11:46:14.007Z</time></trkpt><trkpt lat="45.79652179541262" lon="11.572335909769677"><ele>741.4000000000001</ele><time>2026-05-01T11:46:15.007Z</time></trkpt><trkpt lat="45.796563770857865" lon="11.572475302729016"><ele>740.2</ele><time>2026-05-01T11:46:16.007Z</time></trkpt><trkpt lat="45.7966230101535" lon="11.572587184506979"><ele>739.0</ele><time>2026-05-01T11:46:17.007Z</time></trkpt><trkpt lat="45.796689910471315" lon="11.57275312331342"><ele>736.5</ele><time>2026-05-01T11:46:18.007Z</time></trkpt><trkpt lat="45.796650374890035" lon="11.572975502270804"><ele>734.0</ele><time>2026-05-01T11:46:19.007Z</time></trkpt><trkpt lat="45.79662640949987" lon="11.573162067908658"><ele>731.5</ele><time>2026-05-01T11:46:20.007Z</time></trkpt><trkpt lat="45.796636974166226" lon="11.573327445860038"><ele>729.0</ele><time>2026-05-01T11:46:21.007Z</time></trkpt><trkpt lat="45.79665021445159" lon="11.573485794676191"><ele>729.0</ele><time>2026-05-01T11:46:22.007Z</time></trkpt><trkpt lat="45.79667222391521" lon="11.573644399226128"><ele>729.0</ele><time>2026-05-01T11:46:23.007Z</time></trkpt><trkpt lat="45.79669204674538" lon="11.573802489810543"><ele>729.0</ele><time>2026-05-01T11:46:24.007Z</time></trkpt><trkpt lat="45.79671231863475" lon="11.573939608294907"><ele>729.0</ele><time>2026-05-01T11:46:25.007Z</time></trkpt><trkpt lat="45.79673865002248" lon="11.574116696111327"><ele>729.0</ele><time>2026-05-01T11:46:26.007Z</time></trkpt><trkpt lat="45.796760636024345" lon="11.57435397953832"><ele>727.6</ele><time>2026-05-01T11:46:27.007Z</time></trkpt><trkpt lat="45.7967700514254" lon="11.57447670713022"><ele>726.2</ele><time>2026-05-01T11:46:28.007Z</time></trkpt><trkpt lat="45.79681817668246" lon="11.57455294774795"><ele>724.8000000000001</ele><time>2026-05-01T11:46:29.007Z</time></trkpt><trkpt lat="45.796830835683735" lon="11.574722884508954"><ele>723.4000000000001</ele><time>2026-05-01T11:46:30.007Z</time></trkpt><trkpt lat="45.796854225828454" lon="11.57485529336937"><ele>722.0</ele><time>2026-05-01T11:46:31.007Z</time></trkpt><trkpt lat="45.796879234896124" lon="11.574981036846497"><ele>722.6</ele><time>2026-05-01T11:46:32.007Z</time></trkpt><trkpt lat="45.796924631910954" lon="11.5751263511722"><ele>723.2</ele><time>2026-05-01T11:46:33.007Z</time></trkpt><trkpt lat="45.796930275512395" lon="11.575302929214667"><ele>723.8</ele><time>2026-05-01T11:46:34.007Z</time></trkpt><trkpt lat="45.79696646430038" lon="11.575464632177818"><ele>724.4</ele><time>2026-05-01T11:46:35.007Z</time></trkpt><trkpt lat="45.7970180324423" lon="11.575577397368908"><ele>725.0</ele><time>2026-05-01T11:46:36.007Z</time></trkpt><trkpt lat="45.797063368336225" lon="11.575703079924363"><ele>725.0</ele><time>2026-05-01T11:46:37.007Z</time></trkpt><trkpt lat="45.797104094426615" lon="11.57580191298005"><ele>725.0</ele><time>2026-05-01T11:46:38.007Z</time></trkpt><trkpt lat="45.797154872254346" lon="11.575877639704887"><ele>725.0</ele><time>2026-05-01T11:46:40.007Z</time></trkpt><trkpt lat="45.79709307004365" lon="11.5758182901027"><ele>725.0</ele><time>2026-05-01T11:46:45.007Z</time></trkpt><trkpt lat="45.79715405566631" lon="11.575910379355946"><ele>725.0</ele><time>2026-05-01T11:46:46.007Z</time></trkpt><trkpt lat="45.79710608507713" lon="11.5757766340448"><ele>725.0</ele><time>2026-05-01T11:46:47.007Z</time></trkpt><trkpt lat="45.797062529974916" lon="11.575682466137726"><ele>725.0</ele><time>2026-05-01T11:46:48.007Z</time></trkpt><trkpt lat="45.79701319413583" lon="11.575558575897242"><ele>725.0</ele><time>2026-05-01T11:46:50.143Z</time></trkpt><trkpt lat="45.79693860992795" lon="11.57536684945559"><ele>725.0</ele><time>2026-05-01T11:46:52.149Z</time></trkpt><trkpt lat="45.796919943919555" lon="11.575257128964607"><ele>725.0</ele><time>2026-05-01T11:46:53.144Z</time></trkpt><trkpt lat="45.79681610823127" lon="11.574814871081148"><ele>724.0</ele><time>2026-05-01T11:46:54.145Z</time></trkpt><trkpt lat="45.79665337420407" lon="11.574638988976606"><ele>723.0</ele><time>2026-05-01T11:46:55.145Z</time></trkpt><trkpt lat="45.796598756545535" lon="11.574495400810104"><ele>722.0</ele><time>2026-05-01T11:46:56.144Z</time></trkpt><trkpt lat="45.79649296696811" lon="11.574188019058443"><ele>722.0</ele><time>2026-05-01T11:46:57.143Z</time></trkpt><trkpt lat="45.79640168135008" lon="11.573844238649633"><ele>722.0</ele><time>2026-05-01T11:46:58.008Z</time></trkpt><trkpt lat="45.79639031316972" lon="11.57361560487724"><ele>722.0</ele><time>2026-05-01T11:46:59.008Z</time></trkpt><trkpt lat="45.796377536628874" lon="11.57335587890164"><ele>724.3333333333333</ele><time>2026-05-01T11:47:00.008Z</time></trkpt><trkpt lat="45.796348316971155" lon="11.5730201739965"><ele>726.6666666666666</ele><time>2026-05-01T11:47:01.008Z</time></trkpt><trkpt lat="45.796301685570896" lon="11.57277753409488"><ele>729.0</ele><time>2026-05-01T11:47:02.008Z</time></trkpt><trkpt lat="45.79626945998813" lon="11.572559771873298"><ele>734.0</ele><time>2026-05-01T11:47:03.008Z</time></trkpt><trkpt lat="45.796207707889074" lon="11.57229004033473"><ele>739.0</ele><time>2026-05-01T11:47:04.008Z</time></trkpt><trkpt lat="45.79609016969415" lon="11.571908516557007"><ele>741.0</ele><time>2026-05-01T11:47:06.008Z</time></trkpt><trkpt lat="45.79607058750816" lon="11.571769026608358"><ele>743.0</ele><time>2026-05-01T11:47:07.008Z</time></trkpt><trkpt lat="45.79623828683688" lon="11.571507675764561"><ele>745.0</ele><time>2026-05-01T11:47:08.008Z</time></trkpt><trkpt lat="45.79616053252111" lon="11.571392115527752"><ele>745.0</ele><time>2026-05-01T11:47:09.008Z</time></trkpt><trkpt lat="45.796246183973665" lon="11.571503674226808"><ele>745.0</ele><time>2026-05-01T11:47:12.008Z</time></trkpt><trkpt lat="45.7962862471354" lon="11.57157987593759"><ele>745.0</ele><time>2026-05-01T11:47:13.008Z</time></trkpt><trkpt lat="45.79640742454142" lon="11.571615807272524"><ele>745.0</ele><time>2026-05-01T11:47:15.008Z</time></trkpt><trkpt lat="45.79642334477924" lon="11.571793453836566"><ele>745.0</ele><time>2026-05-01T11:47:16.008Z</time></trkpt><trkpt lat="45.79646339230835" lon="11.571936541226103"><ele>743.8</ele><time>2026-05-01T11:47:17.008Z</time></trkpt><trkpt lat="45.796515002435186" lon="11.572092320138047"><ele>742.6</ele><time>2026-05-01T11:47:18.008Z</time></trkpt><trkpt lat="45.79652475651149" lon="11.572212826138154"><ele>741.4000000000001</ele><time>2026-05-01T11:47:19.008Z</time></trkpt><trkpt lat="45.79658198137905" lon="11.572348896018767"><ele>740.2</ele><time>2026-05-01T11:47:20.008Z</time></trkpt><trkpt lat="45.79664556613013" lon="11.572497161219966"><ele>739.0</ele><time>2026-05-01T11:47:21.008Z</time></trkpt><trkpt lat="45.796720398432626" lon="11.572595037604792"><ele>739.0</ele><time>2026-05-01T11:47:22.008Z</time></trkpt><trkpt lat="45.79678509367404" lon="11.572722319466022"><ele>739.0</ele><time>2026-05-01T11:47:23.008Z</time></trkpt><trkpt lat="45.79685780533389" lon="11.57283040346368"><ele>739.0</ele><time>2026-05-01T11:47:24.008Z</time></trkpt><trkpt lat="45.79692287767909" lon="11.57294260270269"><ele>739.0</ele><time>2026-05-01T11:47:25.008Z</time></trkpt><trkpt lat="45.796987103895056" lon="11.573072956763454"><ele>739.0</ele><time>2026-05-01T11:47:26.008Z</time></trkpt><trkpt lat="45.79707064695636" lon="11.573159070202001"><ele>742.25</ele><time>2026-05-01T11:47:27.008Z</time></trkpt><trkpt lat="45.797148451608464" lon="11.573275591150638"><ele>745.5</ele><time>2026-05-01T11:47:28.008Z</time></trkpt><trkpt lat="45.79721717307136" lon="11.57341726669504"><ele>748.75</ele><time>2026-05-01T11:47:29.008Z</time></trkpt><trkpt lat="45.79725702310153" lon="11.573565534692126"><ele>752.0</ele><time>2026-05-01T11:47:30.008Z</time></trkpt><trkpt lat="45.79723383591998" lon="11.57373542116971"><ele>752.0</ele><time>2026-05-01T11:47:31.008Z</time></trkpt><trkpt lat="45.797237899369165" lon="11.57397216369504"><ele>752.0</ele><time>2026-05-01T11:47:32.008Z</time></trkpt><trkpt lat="45.797243848563866" lon="11.574108585648856"><ele>752.0</ele><time>2026-05-01T11:47:33.008Z</time></trkpt><trkpt lat="45.79727032648984" lon="11.574274961274389"><ele>752.0</ele><time>2026-05-01T11:47:34.008Z</time></trkpt><trkpt lat="45.79733687564851" lon="11.574444179467315"><ele>752.0</ele><time>2026-05-01T11:47:35.008Z</time></trkpt><trkpt lat="45.79748134720846" lon="11.574487478092433"><ele>752.0</ele><time>2026-05-01T11:47:36.008Z</time></trkpt><trkpt lat="45.79753643357823" lon="11.574600085403738"><ele>752.0</ele><time>2026-05-01T11:47:37.008Z</time></trkpt><trkpt lat="45.79757149979642" lon="11.57476174991363"><ele>752.0</ele><time>2026-05-01T11:47:38.008Z</time></trkpt><trkpt lat="45.79759903562781" lon="11.574940617025632"><ele>751.75</ele><time>2026-05-01T11:47:39.008Z</time></trkpt><trkpt lat="45.797677017957824" lon="11.575064209236876"><ele>751.5</ele><time>2026-05-01T11:47:40.008Z</time></trkpt><trkpt lat="45.79771699815654" lon="11.5752259211266"><ele>751.25</ele><time>2026-05-01T11:47:41.008Z</time></trkpt><trkpt lat="45.79779834652082" lon="11.575382786878137"><ele>751.0</ele><time>2026-05-01T11:47:42.008Z</time></trkpt><trkpt lat="45.79790000683955" lon="11.575491500526619"><ele>751.0</ele><time>2026-05-01T11:47:43.008Z</time></trkpt><trkpt lat="45.79796698392886" lon="11.575573812099224"><ele>751.0</ele><time>2026-05-01T11:47:44.008Z</time></trkpt><trkpt lat="45.79806338038289" lon="11.575467655265186"><ele>751.0</ele><time>2026-05-01T11:47:46.008Z</time></trkpt><trkpt lat="45.79829613443028" lon="11.575412136320955"><ele>751.0</ele><time>2026-05-01T11:47:47.008Z</time></trkpt><trkpt lat="45.79851302233009" lon="11.575399538178536"><ele>756.5</ele><time>2026-05-01T11:47:48.008Z</time></trkpt><trkpt lat="45.79867850175015" lon="11.57539189960876"><ele>762.0</ele><time>2026-05-01T11:47:49.008Z</time></trkpt><trkpt lat="45.798824329551294" lon="11.57545315488486"><ele>767.5</ele><time>2026-05-01T11:47:50.008Z</time></trkpt><trkpt lat="45.79893368083577" lon="11.57550315929495"><ele>773.0</ele><time>2026-05-01T11:47:51.008Z</time></trkpt><trkpt lat="45.79898278421036" lon="11.57566216636149"><ele>773.0</ele><time>2026-05-01T11:47:52.008Z</time></trkpt><trkpt lat="45.799031661212354" lon="11.57589174233344"><ele>773.0</ele><time>2026-05-01T11:47:53.008Z</time></trkpt><trkpt lat="45.79916584590111" lon="11.576065833967249"><ele>773.0</ele><time>2026-05-01T11:47:54.008Z</time></trkpt><trkpt lat="45.79928359677438" lon="11.576169171356225"><ele>774.25</ele><time>2026-05-01T11:47:55.008Z</time></trkpt><trkpt lat="45.79942808930469" lon="11.576245655716168"><ele>775.5</ele><time>2026-05-01T11:47:56.008Z</time></trkpt><trkpt lat="45.79956522203364" lon="11.576360309213628"><ele>776.75</ele><time>2026-05-01T11:47:57.008Z</time></trkpt><trkpt lat="45.79965158246146" lon="11.57644328706757"><ele>778.0</ele><time>2026-05-01T11:47:59.009Z</time></trkpt><trkpt lat="45.79979200953158" lon="11.576565052049666"><ele>778.0</ele><time>2026-05-01T11:48:00.009Z</time></trkpt><trkpt lat="45.79995650101667" lon="11.576703149315671"><ele>778.0</ele><time>2026-05-01T11:48:01.009Z</time></trkpt><trkpt lat="45.80009469907578" lon="11.576826946518576"><ele>778.0</ele><time>2026-05-01T11:48:02.009Z</time></trkpt><trkpt lat="45.80021243113015" lon="11.576953539974234"><ele>780.25</ele><time>2026-05-01T11:48:03.009Z</time></trkpt><trkpt lat="45.800322518998556" lon="11.577087885024595"><ele>782.5</ele><time>2026-05-01T11:48:04.005Z</time></trkpt><trkpt lat="45.80043259350256" lon="11.577208573085354"><ele>784.75</ele><time>2026-05-01T11:48:05.004Z</time></trkpt><trkpt lat="45.80052244164979" lon="11.577325772094365"><ele>787.0</ele><time>2026-05-01T11:48:06.004Z</time></trkpt><trkpt lat="45.80059905299725" lon="11.577424374087723"><ele>787.0</ele><time>2026-05-01T11:48:07.005Z</time></trkpt><trkpt lat="45.80068273164507" lon="11.57751528509685"><ele>787.0</ele><time>2026-05-01T11:48:08.004Z</time></trkpt><trkpt lat="45.800805277543866" lon="11.57766882777222"><ele>787.0</ele><time>2026-05-01T11:48:09.004Z</time></trkpt><trkpt lat="45.80090419201707" lon="11.57782629240155"><ele>787.0</ele><time>2026-05-01T11:48:10.005Z</time></trkpt><trkpt lat="45.80099702471355" lon="11.57793727265283"><ele>790.3333333333333</ele><time>2026-05-01T11:48:11.004Z</time></trkpt><trkpt lat="45.801116972597285" lon="11.578059835470606"><ele>793.6666666666667</ele><time>2026-05-01T11:48:12.004Z</time></trkpt><trkpt lat="45.80125521946331" lon="11.5781566419082"><ele>797.0</ele><time>2026-05-01T11:48:13.005Z</time></trkpt><trkpt lat="45.801410900193375" lon="11.57828265582467"><ele>797.0</ele><time>2026-05-01T11:48:14.004Z</time></trkpt><trkpt lat="45.80150617312536" lon="11.57835745788648"><ele>797.0</ele><time>2026-05-01T11:48:15.004Z</time></trkpt><trkpt lat="45.801623623741015" lon="11.57843722740923"><ele>797.0</ele><time>2026-05-01T11:48:16.004Z</time></trkpt><trkpt lat="45.801726556465965" lon="11.57851460601005"><ele>797.0</ele><time>2026-05-01T11:48:17.004Z</time></trkpt><trkpt lat="45.80183584799082" lon="11.578605311847134"><ele>800.25</ele><time>2026-05-01T11:48:18.004Z</time></trkpt><trkpt lat="45.801928362553184" lon="11.578727233278377"><ele>803.5</ele><time>2026-05-01T11:48:19.004Z</time></trkpt><trkpt lat="45.80203025760411" lon="11.578883810784065"><ele>806.75</ele><time>2026-05-01T11:48:20.005Z</time></trkpt><trkpt lat="45.802141967219654" lon="11.579044777699698"><ele>810.0</ele><time>2026-05-01T11:48:21.005Z</time></trkpt><trkpt lat="45.80223974025249" lon="11.579174009063296"><ele>810.0</ele><time>2026-05-01T11:48:22.005Z</time></trkpt><trkpt lat="45.80234890984131" lon="11.579340801944742"><ele>810.0</ele><time>2026-05-01T11:48:23.005Z</time></trkpt><trkpt lat="45.80247452925114" lon="11.579493892548777"><ele>810.0</ele><time>2026-05-01T11:48:24.005Z</time></trkpt><trkpt lat="45.802594845022206" lon="11.579618890487945"><ele>812.25</ele><time>2026-05-01T11:48:25.005Z</time></trkpt><trkpt lat="45.802719232347556" lon="11.579720777956528"><ele>814.5</ele><time>2026-05-01T11:48:26.005Z</time></trkpt><trkpt lat="45.80282263286913" lon="11.579799550326335"><ele>816.75</ele><time>2026-05-01T11:48:27.005Z</time></trkpt><trkpt lat="45.80292932508715" lon="11.579879552947174"><ele>819.0</ele><time>2026-05-01T11:48:28.005Z</time></trkpt><trkpt lat="45.803046434263145" lon="11.579952415070187"><ele>819.0</ele><time>2026-05-01T11:48:29.005Z</time></trkpt><trkpt lat="45.803154193171196" lon="11.580025236571979"><ele>819.0</ele><time>2026-05-01T11:48:30.005Z</time></trkpt><trkpt lat="45.803258658370886" lon="11.580111536374185"><ele>819.0</ele><time>2026-05-01T11:48:31.005Z</time></trkpt><trkpt lat="45.80336391197877" lon="11.580208490623663"><ele>819.0</ele><time>2026-05-01T11:48:32.005Z</time></trkpt><trkpt lat="45.80345872884848" lon="11.580325609276857"><ele>825.75</ele><time>2026-05-01T11:48:33.005Z</time></trkpt><trkpt lat="45.80351826494843" lon="11.580448051193947"><ele>832.5</ele><time>2026-05-01T11:48:34.005Z</time></trkpt><trkpt lat="45.80351791905406" lon="11.580631846573676"><ele>839.25</ele><time>2026-05-01T11:48:35.005Z</time></trkpt><trkpt lat="45.80352777569055" lon="11.580834904529715"><ele>846.0</ele><time>2026-05-01T11:48:36.005Z</time></trkpt><trkpt lat="45.80354062228112" lon="11.581014672573934"><ele>845.75</ele><time>2026-05-01T11:48:37.005Z</time></trkpt><trkpt lat="45.803552305627505" lon="11.581194623286548"><ele>845.5</ele><time>2026-05-01T11:48:38.005Z</time></trkpt><trkpt lat="45.80356980389618" lon="11.581382402189352"><ele>845.25</ele><time>2026-05-01T11:48:39.005Z</time></trkpt><trkpt lat="45.80355964595027" lon="11.581574182814744"><ele>845.0</ele><time>2026-05-01T11:48:40.005Z</time></trkpt><trkpt lat="45.803561704120135" lon="11.581756931266698"><ele>845.0</ele><time>2026-05-01T11:48:41.005Z</time></trkpt><trkpt lat="45.803567913350854" lon="11.581931522859545"><ele>845.0</ele><time>2026-05-01T11:48:42.005Z</time></trkpt><trkpt lat="45.80361292495417" lon="11.582110581571037"><ele>845.0</ele><time>2026-05-01T11:48:43.005Z</time></trkpt><trkpt lat="45.803631060143374" lon="11.58232237985038"><ele>845.0</ele><time>2026-05-01T11:48:44.005Z</time></trkpt><trkpt lat="45.803650523544626" lon="11.582524270617485"><ele>843.8</ele><time>2026-05-01T11:48:45.005Z</time></trkpt><trkpt lat="45.80368970351363" lon="11.58267010417383"><ele>842.6</ele><time>2026-05-01T11:48:46.005Z</time></trkpt><trkpt lat="45.80377327051896" lon="11.582746717091904"><ele>841.4000000000001</ele><time>2026-05-01T11:48:47.005Z</time></trkpt><trkpt lat="45.80386478547198" lon="11.582806357861351"><ele>840.2</ele><time>2026-05-01T11:48:48.005Z</time></trkpt><trkpt lat="45.80396600757331" lon="11.582902797325719"><ele>839.0</ele><time>2026-05-01T11:48:49.005Z</time></trkpt><trkpt lat="45.80406757966081" lon="11.583011366144866"><ele>841.75</ele><time>2026-05-01T11:48:50.005Z</time></trkpt><trkpt lat="45.80417827962987" lon="11.583112962272907"><ele>844.5</ele><time>2026-05-01T11:48:51.005Z</time></trkpt><trkpt lat="45.80427987677158" lon="11.583240115665607"><ele>847.25</ele><time>2026-05-01T11:48:52.005Z</time></trkpt><trkpt lat="45.80436998146565" lon="11.583371613382882"><ele>850.0</ele><time>2026-05-01T11:48:53.005Z</time></trkpt><trkpt lat="45.8044916207365" lon="11.583499330219583"><ele>850.0</ele><time>2026-05-01T11:48:54.005Z</time></trkpt><trkpt lat="45.80457738390741" lon="11.58356255221095"><ele>850.0</ele><time>2026-05-01T11:48:55.005Z</time></trkpt><trkpt lat="45.804707385844715" lon="11.583673890579961"><ele>850.0</ele><time>2026-05-01T11:48:56.005Z</time></trkpt><trkpt lat="45.80480119187297" lon="11.583810283105423"><ele>850.0</ele><time>2026-05-01T11:48:57.005Z</time></trkpt><trkpt lat="45.80488863690017" lon="11.583968449646099"><ele>847.0</ele><time>2026-05-01T11:48:58.005Z</time></trkpt><trkpt lat="45.80495789486248" lon="11.584105171529757"><ele>844.0</ele><time>2026-05-01T11:48:59.005Z</time></trkpt><trkpt lat="45.80502219383785" lon="11.584274496280416"><ele>841.0</ele><time>2026-05-01T11:49:00.005Z</time></trkpt><trkpt lat="45.805077769766484" lon="11.584428936273575"><ele>838.0</ele><time>2026-05-01T11:49:01.005Z</time></trkpt><trkpt lat="45.805113525202216" lon="11.584586492739097"><ele>837.2</ele><time>2026-05-01T11:49:02.005Z</time></trkpt><trkpt lat="45.805129825017175" lon="11.584753577954162"><ele>836.4</ele><time>2026-05-01T11:49:03.005Z</time></trkpt><trkpt lat="45.80515844069218" lon="11.584910872201283"><ele>835.6</ele><time>2026-05-01T11:49:04.005Z</time></trkpt><trkpt lat="45.805187975847325" lon="11.585037847918393"><ele>834.8000000000001</ele><time>2026-05-01T11:49:05.005Z</time></trkpt><trkpt lat="45.80522706426551" lon="11.58514260431525"><ele>834.0</ele><time>2026-05-01T11:49:06.005Z</time></trkpt><trkpt lat="45.805265137947515" lon="11.585277959425177"><ele>839.5</ele><time>2026-05-01T11:49:07.005Z</time></trkpt><trkpt lat="45.805348194655814" lon="11.585356977459691"><ele>845.0</ele><time>2026-05-01T11:49:08.005Z</time></trkpt><trkpt lat="45.805466035150765" lon="11.585500518615383"><ele>850.5</ele><time>2026-05-01T11:49:09.005Z</time></trkpt><trkpt lat="45.80556692877375" lon="11.58561882253652"><ele>856.0</ele><time>2026-05-01T11:49:10.005Z</time></trkpt><trkpt lat="45.80564408015924" lon="11.585716779348402"><ele>856.0</ele><time>2026-05-01T11:49:11.005Z</time></trkpt><trkpt lat="45.805723085765344" lon="11.5858500852897"><ele>856.0</ele><time>2026-05-01T11:49:12.005Z</time></trkpt><trkpt lat="45.80581251690507" lon="11.586040056139728"><ele>856.0</ele><time>2026-05-01T11:49:13.005Z</time></trkpt><trkpt lat="45.805835093581656" lon="11.586234864361366"><ele>856.0</ele><time>2026-05-01T11:49:14.005Z</time></trkpt><trkpt lat="45.805876081704625" lon="11.586397496212413"><ele>854.25</ele><time>2026-05-01T11:49:15.005Z</time></trkpt><trkpt lat="45.80594915960642" lon="11.586577560309632"><ele>852.5</ele><time>2026-05-01T11:49:16.005Z</time></trkpt><trkpt lat="45.80600836205464" lon="11.586688396982517"><ele>850.75</ele><time>2026-05-01T11:49:17.005Z</time></trkpt><trkpt lat="45.806088101240945" lon="11.58680951546622"><ele>849.0</ele><time>2026-05-01T11:49:18.005Z</time></trkpt><trkpt lat="45.80619472217479" lon="11.586983971334531"><ele>853.0</ele><time>2026-05-01T11:49:19.005Z</time></trkpt><trkpt lat="45.80626802496989" lon="11.58715652524419"><ele>857.0</ele><time>2026-05-01T11:49:20.005Z</time></trkpt><trkpt lat="45.80636294115362" lon="11.587252401284477"><ele>861.0</ele><time>2026-05-01T11:49:21.005Z</time></trkpt><trkpt lat="45.80642844641255" lon="11.587390037059334"><ele>865.0</ele><time>2026-05-01T11:49:22.005Z</time></trkpt><trkpt lat="45.80653023638075" lon="11.587585181002325"><ele>861.0</ele><time>2026-05-01T11:49:24.006Z</time></trkpt><trkpt lat="45.806711174730424" lon="11.587887231667523"><ele>857.0</ele><time>2026-05-01T11:49:25.006Z</time></trkpt><trkpt lat="45.80681809551709" lon="11.588093661468186"><ele>867.0</ele><time>2026-05-01T11:49:26.006Z</time></trkpt><trkpt lat="45.80694805750015" lon="11.588292286690583"><ele>877.0</ele><time>2026-05-01T11:49:27.006Z</time></trkpt><trkpt lat="45.807041241735" lon="11.5884582821653"><ele>887.0</ele><time>2026-05-01T11:49:28.006Z</time></trkpt><trkpt lat="45.80714443931265" lon="11.588657134300293"><ele>881.6666666666667</ele><time>2026-05-01T11:49:29.006Z</time></trkpt><trkpt lat="45.80726632799204" lon="11.588821388298161"><ele>876.3333333333333</ele><time>2026-05-01T11:49:30.006Z</time></trkpt><trkpt lat="45.807370765940675" lon="11.588966182998243"><ele>871.0</ele><time>2026-05-01T11:49:31.006Z</time></trkpt><trkpt lat="45.80748815525675" lon="11.589120947002467"><ele>871.0</ele><time>2026-05-01T11:49:32.006Z</time></trkpt><trkpt lat="45.80757902592858" lon="11.589269155439927"><ele>871.0</ele><time>2026-05-01T11:49:33.006Z</time></trkpt><trkpt lat="45.807690767383825" lon="11.589431413236403"><ele>871.0</ele><time>2026-05-01T11:49:34.006Z</time></trkpt><trkpt lat="45.80778960144876" lon="11.589579680560524"><ele>871.0</ele><time>2026-05-01T11:49:35.006Z</time></trkpt><trkpt lat="45.807876049866294" lon="11.589745707282937"><ele>874.25</ele><time>2026-05-01T11:49:36.006Z</time></trkpt><trkpt lat="45.80798971646046" lon="11.58990455818542"><ele>877.5</ele><time>2026-05-01T11:49:37.006Z</time></trkpt><trkpt lat="45.80807572409407" lon="11.590080474697151"><ele>880.75</ele><time>2026-05-01T11:49:38.006Z</time></trkpt><trkpt lat="45.80815065301484" lon="11.590241339105672"><ele>884.0</ele><time>2026-05-01T11:49:39.006Z</time></trkpt><trkpt lat="45.80822377465986" lon="11.59041524168376"><ele>884.0</ele><time>2026-05-01T11:49:40.006Z</time></trkpt><trkpt lat="45.808270994514025" lon="11.590591101803724"><ele>884.0</ele><time>2026-05-01T11:49:41.006Z</time></trkpt><trkpt lat="45.80833273857362" lon="11.590777576665479"><ele>884.0</ele><time>2026-05-01T11:49:42.006Z</time></trkpt><trkpt lat="45.80839455635085" lon="11.590955728114729"><ele>884.0</ele><time>2026-05-01T11:49:43.006Z</time></trkpt><trkpt lat="45.8084686767634" lon="11.591145777814756"><ele>889.0</ele><time>2026-05-01T11:49:44.006Z</time></trkpt><trkpt lat="45.808508586331726" lon="11.591296114497764"><ele>894.0000000000001</ele><time>2026-05-01T11:49:45.006Z</time></trkpt><trkpt lat="45.80855265803835" lon="11.591446251413036"><ele>899.0000000000001</ele><time>2026-05-01T11:49:46.006Z</time></trkpt><trkpt lat="45.80857135651995" lon="11.591564074733386"><ele>904.0</ele><time>2026-05-01T11:49:47.006Z</time></trkpt><trkpt lat="45.80859774413503" lon="11.591704669200812"><ele>909.0</ele><time>2026-05-01T11:49:48.006Z</time></trkpt><trkpt lat="45.808639567127486" lon="11.591817504750582"><ele>909.0</ele><time>2026-05-01T11:49:49.006Z</time></trkpt><trkpt lat="45.80870965648279" lon="11.591852736995866"><ele>909.0000000000001</ele><time>2026-05-01T11:49:51.006Z</time></trkpt><trkpt lat="45.8088285698855" lon="11.591847447254159"><ele>909.0000000000001</ele><time>2026-05-01T11:50:02.006Z</time></trkpt><trkpt lat="45.808873398076635" lon="11.59193828656119"><ele>909.0</ele><time>2026-05-01T11:50:03.006Z</time></trkpt><trkpt lat="45.808912320077205" lon="11.591858477654096"><ele>909.0</ele><time>2026-05-01T11:50:05.141Z</time></trkpt><trkpt lat="45.80891962812273" lon="11.59217423637748"><ele>907.6</ele><time>2026-05-01T11:50:06.146Z</time></trkpt><trkpt lat="45.80896960760369" lon="11.59226184757839"><ele>906.2</ele><time>2026-05-01T11:50:08.145Z</time></trkpt><trkpt lat="45.808950737148365" lon="11.592356249431427"><ele>904.8000000000001</ele><time>2026-05-01T11:50:09.14Z</time></trkpt><trkpt lat="45.80896051984265" lon="11.592478255806185"><ele>903.4000000000001</ele><time>2026-05-01T11:50:11.141Z</time></trkpt><trkpt lat="45.80899614592568" lon="11.592555898166577"><ele>902.0</ele><time>2026-05-01T11:50:12.145Z</time></trkpt><trkpt lat="45.808905462259204" lon="11.592823572311557"><ele>901.8</ele><time>2026-05-01T11:50:17.141Z</time></trkpt><trkpt lat="45.80891335959874" lon="11.593055587973032"><ele>901.6</ele><time>2026-05-01T11:50:31.003Z</time></trkpt><trkpt lat="45.80896365586926" lon="11.593162336029463"><ele>901.3999999999999</ele><time>2026-05-01T11:50:36.003Z</time></trkpt><trkpt lat="45.80905907150636" lon="11.5932521628265"><ele>901.1999999999999</ele><time>2026-05-01T11:50:39.003Z</time></trkpt><trkpt lat="45.80912855401556" lon="11.593299354357466"><ele>901.0</ele><time>2026-05-01T11:50:42.002Z</time></trkpt><trkpt lat="45.80919690176747" lon="11.593273160575222"><ele>901.0</ele><time>2026-05-01T12:01:06.995Z</time></trkpt><trkpt lat="45.80927680013237" lon="11.593278335850885"><ele>901.0000000000001</ele><time>2026-05-01T12:01:08.995Z</time></trkpt><trkpt lat="45.80930047171794" lon="11.593374598760485"><ele>901.0</ele><time>2026-05-01T12:01:09.994Z</time></trkpt><trkpt lat="45.80933655941427" lon="11.593451576197596"><ele>901.0</ele><time>2026-05-01T12:01:21.995Z</time></trkpt><trkpt lat="45.80940378535056" lon="11.59346705237464"><ele>901.0000000000001</ele><time>2026-05-01T12:01:41.995Z</time></trkpt><trkpt lat="45.80946057685565" lon="11.59341836282289"><ele>901.0</ele><time>2026-05-01T12:01:53.996Z</time></trkpt><trkpt lat="45.80949713645368" lon="11.593508859089129"><ele>901.0</ele><time>2026-05-01T12:01:55.996Z</time></trkpt><trkpt lat="45.809577936526594" lon="11.593443431666442"><ele>902.1666666666666</ele><time>2026-05-01T12:01:57.996Z</time></trkpt><trkpt lat="45.80955388928834" lon="11.593555109798686"><ele>903.3333333333333</ele><time>2026-05-01T12:02:08.136Z</time></trkpt><trkpt lat="45.80958472026001" lon="11.593672359715917"><ele>904.5</ele><time>2026-05-01T12:02:09.137Z</time></trkpt><trkpt lat="45.80950493890841" lon="11.593623797990523"><ele>905.6666666666667</ele><time>2026-05-01T12:02:17.996Z</time></trkpt><trkpt lat="45.809536803305036" lon="11.593544195680819"><ele>906.8333333333334</ele><time>2026-05-01T12:02:51.996Z</time></trkpt><trkpt lat="45.809531320708615" lon="11.5934427554009"><ele>908.0</ele><time>2026-05-01T12:02:58.997Z</time></trkpt><trkpt lat="45.80949315112174" lon="11.593521085814732"><ele>910.1666666666667</ele><time>2026-05-01T12:05:55.13Z</time></trkpt><trkpt lat="45.8095778257052" lon="11.593467708414835"><ele>912.3333333333334</ele><time>2026-05-01T12:06:06.135Z</time></trkpt><trkpt lat="45.8096404552373" lon="11.593452704331744"><ele>914.5</ele><time>2026-05-01T12:06:08.135Z</time></trkpt><trkpt lat="45.80971111317083" lon="11.593418071160773"><ele>916.6666666666667</ele><time>2026-05-01T12:06:10.135Z</time></trkpt><trkpt lat="45.80978737591267" lon="11.593379135499733"><ele>918.8333333333334</ele><time>2026-05-01T12:06:12.134Z</time></trkpt><trkpt lat="45.80985093550841" lon="11.593380609680192"><ele>921.0</ele><time>2026-05-01T12:06:14.135Z</time></trkpt><trkpt lat="45.80994860184775" lon="11.593377476883658"><ele>921.0</ele><time>2026-05-01T12:06:17.135Z</time></trkpt><trkpt lat="45.81009659004897" lon="11.593448601775995"><ele>920.9999999999999</ele><time>2026-05-01T12:06:19.134Z</time></trkpt><trkpt lat="45.810137425067644" lon="11.59353041580987"><ele>920.9999999999999</ele><time>2026-05-01T12:06:21.13Z</time></trkpt><trkpt lat="45.81012622211668" lon="11.593675570263395"><ele>921.0</ele><time>2026-05-01T12:06:23.134Z</time></trkpt><trkpt lat="45.81011260736996" lon="11.593765805915318"><ele>921.0</ele><time>2026-05-01T12:06:25.135Z</time></trkpt><trkpt lat="45.81014401938644" lon="11.593857476466745"><ele>922.5</ele><time>2026-05-01T12:06:27.135Z</time></trkpt><trkpt lat="45.8102203836232" lon="11.59395220409281"><ele>924.0</ele><time>2026-05-01T12:06:30.135Z</time></trkpt><trkpt lat="45.81028353807048" lon="11.594011558157177"><ele>925.5</ele><time>2026-05-01T12:06:32.134Z</time></trkpt><trkpt lat="45.81035939643509" lon="11.594047470289114"><ele>927.0</ele><time>2026-05-01T12:06:35.134Z</time></trkpt><trkpt lat="45.810436017390785" lon="11.5941083142851"><ele>928.5</ele><time>2026-05-01T12:06:38.135Z</time></trkpt><trkpt lat="45.810512518547775" lon="11.594165733630636"><ele>930.0</ele><time>2026-05-01T12:06:41.13Z</time></trkpt><trkpt lat="45.8105747647847" lon="11.594193290979373"><ele>930.0</ele><time>2026-05-01T12:06:43.135Z</time></trkpt><trkpt lat="45.81066261211959" lon="11.594236877775044"><ele>930.0</ele><time>2026-05-01T12:06:46.135Z</time></trkpt><trkpt lat="45.81074461821707" lon="11.594245441957245"><ele>930.0</ele><time>2026-05-01T12:06:49.135Z</time></trkpt><trkpt lat="45.810813101537" lon="11.59426495714918"><ele>930.0</ele><time>2026-05-01T12:06:51.13Z</time></trkpt><trkpt lat="45.81084697032053" lon="11.594343921507775"><ele>930.0</ele><time>2026-05-01T12:06:55.131Z</time></trkpt><trkpt lat="45.81090555786906" lon="11.594426312884622"><ele>930.0</ele><time>2026-05-01T12:06:59.13Z</time></trkpt><trkpt lat="45.81096059939616" lon="11.594494915047305"><ele>931.1428571428571</ele><time>2026-05-01T12:07:04.134Z</time></trkpt><trkpt lat="45.811028808686345" lon="11.594525328451569"><ele>932.2857142857143</ele><time>2026-05-01T12:07:24.13Z</time></trkpt><trkpt lat="45.81109208147151" lon="11.594525728671837"><ele>933.4285714285714</ele><time>2026-05-01T12:07:32.998Z</time></trkpt><trkpt lat="45.811064968648864" lon="11.594437571588026"><ele>934.5714285714286</ele><time>2026-05-01T12:07:41.992Z</time></trkpt><trkpt lat="45.811126992652966" lon="11.594410236783698"><ele>935.7142857142858</ele><time>2026-05-01T12:08:06.992Z</time></trkpt><trkpt lat="45.81117742698813" lon="11.594324994922346"><ele>936.8571428571429</ele><time>2026-05-01T12:08:10.992Z</time></trkpt><trkpt lat="45.811116942313575" lon="11.594377611920141"><ele>938.0</ele><time>2026-05-01T12:08:19.993Z</time></trkpt><trkpt lat="45.811043749705036" lon="11.594443868826435"><ele>936.4</ele><time>2026-05-01T12:09:39.994Z</time></trkpt><trkpt lat="45.81098644956676" lon="11.594386430997424"><ele>934.8</ele><time>2026-05-01T12:13:37.993Z</time></trkpt><trkpt lat="45.811053145040844" lon="11.594269907842145"><ele>933.2</ele><time>2026-05-01T12:13:43.993Z</time></trkpt><trkpt lat="45.811109109799204" lon="11.594140190116546"><ele>931.6</ele><time>2026-05-01T12:13:45.993Z</time></trkpt><trkpt lat="45.811054702481954" lon="11.59403757373683"><ele>930.0</ele><time>2026-05-01T12:13:48.993Z</time></trkpt><trkpt lat="45.81104967379151" lon="11.593908652938191"><ele>930.0</ele><time>2026-05-01T12:13:50.993Z</time></trkpt><trkpt lat="45.81103201914523" lon="11.593812361372667"><ele>930.0</ele><time>2026-05-01T12:13:52.993Z</time></trkpt><trkpt lat="45.8109980913021" lon="11.593895164444756"><ele>930.0</ele><time>2026-05-01T12:14:00.991Z</time></trkpt><trkpt lat="45.810964164250684" lon="11.59381634599021"><ele>930.0</ele><time>2026-05-01T12:14:02.991Z</time></trkpt><trkpt lat="45.81094258745545" lon="11.593649401974805"><ele>930.0</ele><time>2026-05-01T12:14:05.99Z</time></trkpt><trkpt lat="45.810879529284854" lon="11.593545473791348"><ele>930.0</ele><time>2026-05-01T12:14:07.99Z</time></trkpt><trkpt lat="45.81081934922978" lon="11.593393705829708"><ele>932.4</ele><time>2026-05-01T12:14:09.991Z</time></trkpt><trkpt lat="45.810800634179245" lon="11.593194327403749"><ele>934.8</ele><time>2026-05-01T12:14:10.99Z</time></trkpt><trkpt lat="45.81074317108072" lon="11.59307577543688"><ele>937.2</ele><time>2026-05-01T12:14:12.99Z</time></trkpt><trkpt lat="45.81077422828708" lon="11.592936376576592"><ele>939.6</ele><time>2026-05-01T12:14:29.991Z</time></trkpt><trkpt lat="45.81083364395943" lon="11.593019290186861"><ele>942.0</ele><time>2026-05-01T12:14:35.991Z</time></trkpt><trkpt lat="45.81086194404659" lon="11.593105158476144"><ele>942.0</ele><time>2026-05-01T12:14:37.991Z</time></trkpt><trkpt lat="45.810881075312196" lon="11.593221303983436"><ele>942.0</ele><time>2026-05-01T12:14:39.991Z</time></trkpt><trkpt lat="45.81091506011268" lon="11.593308186675252"><ele>942.0</ele><time>2026-05-01T12:14:41.991Z</time></trkpt><trkpt lat="45.81094646854455" lon="11.593419891181894"><ele>942.0</ele><time>2026-05-01T12:14:43.991Z</time></trkpt><trkpt lat="45.81096096091305" lon="11.59351217832502"><ele>942.0</ele><time>2026-05-01T12:14:44.991Z</time></trkpt><trkpt lat="45.811016053133486" lon="11.5936594929658"><ele>942.0</ele><time>2026-05-01T12:14:46.991Z</time></trkpt><trkpt lat="45.81106895649413" lon="11.593756572395112"><ele>944.0</ele><time>2026-05-01T12:14:48.991Z</time></trkpt><trkpt lat="45.81111164051241" lon="11.593893632552899"><ele>946.0</ele><time>2026-05-01T12:14:50.991Z</time></trkpt><trkpt lat="45.811086973357455" lon="11.59402522416296"><ele>948.0</ele><time>2026-05-01T12:14:51.991Z</time></trkpt><trkpt lat="45.811087331451745" lon="11.594160153756363"><ele>950.0</ele><time>2026-05-01T12:14:52.991Z</time></trkpt><trkpt lat="45.8110963942573" lon="11.594254335756077"><ele>952.0</ele><time>2026-05-01T12:14:53.991Z</time></trkpt><trkpt lat="45.81107646692848" lon="11.594364183503922"><ele>954.0</ele><time>2026-05-01T12:14:54.991Z</time></trkpt><trkpt lat="45.811052983774545" lon="11.594476761755395"><ele>951.3333333333334</ele><time>2026-05-01T12:14:55.991Z</time></trkpt><trkpt lat="45.8110630533735" lon="11.594625680142999"><ele>948.6666666666667</ele><time>2026-05-01T12:14:57.991Z</time></trkpt><trkpt lat="45.8110463306225" lon="11.59475839945602"><ele>946.0</ele><time>2026-05-01T12:14:59.991Z</time></trkpt><trkpt lat="45.81112400276806" lon="11.594755767203564"><ele>943.3333333333334</ele><time>2026-05-01T12:15:07.991Z</time></trkpt><trkpt lat="45.81120403640964" lon="11.5948087671816"><ele>940.6666666666667</ele><time>2026-05-01T12:15:10.991Z</time></trkpt><trkpt lat="45.81118052353031" lon="11.594912745984528"><ele>938.0</ele><time>2026-05-01T12:15:13.991Z</time></trkpt><trkpt lat="45.811192234943256" lon="11.59500860019597"><ele>938.0000000000001</ele><time>2026-05-01T12:15:15.991Z</time></trkpt><trkpt lat="45.811245432058975" lon="11.59510003730819"><ele>938.0</ele><time>2026-05-01T12:15:18.992Z</time></trkpt><trkpt lat="45.81128036233443" lon="11.595018257505512"><ele>938.0</ele><time>2026-05-01T12:15:20.992Z</time></trkpt><trkpt lat="45.81136564801379" lon="11.594964506385741"><ele>938.0</ele><time>2026-05-01T12:15:38.992Z</time></trkpt><trkpt lat="45.81144616982574" lon="11.59494223983861"><ele>938.0000000000001</ele><time>2026-05-01T12:15:40.992Z</time></trkpt><trkpt lat="45.81149406482045" lon="11.594848836998844"><ele>938.0</ele><time>2026-05-01T12:15:42.992Z</time></trkpt><trkpt lat="45.81158475478338" lon="11.594832789405402"><ele>938.0</ele><time>2026-05-01T12:15:45.992Z</time></trkpt><trkpt lat="45.811585644007266" lon="11.594933472065584"><ele>938.0</ele><time>2026-05-01T12:15:56.992Z</time></trkpt><trkpt lat="45.8115615318775" lon="11.594835116325731"><ele>938.0</ele><time>2026-05-01T12:16:01.992Z</time></trkpt><trkpt lat="45.811647228460174" lon="11.594820850325828"><ele>938.0</ele><time>2026-05-01T12:16:06.988Z</time></trkpt><trkpt lat="45.81181753716908" lon="11.59483308668358"><ele>938.0</ele><time>2026-05-01T12:16:20.989Z</time></trkpt><trkpt lat="45.81187518040195" lon="11.594924703926013"><ele>941.6666666666667</ele><time>2026-05-01T12:16:23.989Z</time></trkpt><trkpt lat="45.811935930271424" lon="11.594955577109191"><ele>945.3333333333334</ele><time>2026-05-01T12:16:25.989Z</time></trkpt><trkpt lat="45.811985863053195" lon="11.595011833775365"><ele>949.0</ele><time>2026-05-01T12:16:27.131Z</time></trkpt><trkpt lat="45.81210006757214" lon="11.595058627855986"><ele>952.6666666666667</ele><time>2026-05-01T12:16:29.13Z</time></trkpt><trkpt lat="45.81217089366964" lon="11.595098410960631"><ele>956.3333333333334</ele><time>2026-05-01T12:16:31.127Z</time></trkpt><trkpt lat="45.812236987600535" lon="11.595209217756206"><ele>960.0</ele><time>2026-05-01T12:16:34.129Z</time></trkpt><trkpt lat="45.81234522433706" lon="11.595229667985645"><ele>960.0</ele><time>2026-05-01T12:16:37.13Z</time></trkpt><trkpt lat="45.81241972275398" lon="11.595261590271766"><ele>960.0</ele><time>2026-05-01T12:16:39.13Z</time></trkpt><trkpt lat="45.812536390601494" lon="11.595180882365463"><ele>960.0</ele><time>2026-05-01T12:16:41.13Z</time></trkpt><trkpt lat="45.81260470436735" lon="11.595125076837896"><ele>960.0</ele><time>2026-05-01T12:16:42.125Z</time></trkpt><trkpt lat="45.8126929254968" lon="11.595148305881388"><ele>960.0</ele><time>2026-05-01T12:16:44.126Z</time></trkpt><trkpt lat="45.8127827306382" lon="11.595211463242448"><ele>964.0</ele><time>2026-05-01T12:16:46.129Z</time></trkpt><trkpt lat="45.81286289971006" lon="11.595218561863156"><ele>968.0</ele><time>2026-05-01T12:16:47.989Z</time></trkpt><trkpt lat="45.812954871380285" lon="11.595201187808467"><ele>972.0</ele><time>2026-05-01T12:16:49.989Z</time></trkpt><trkpt lat="45.81304716258663" lon="11.59522195029471"><ele>976.0</ele><time>2026-05-01T12:16:51.989Z</time></trkpt><trkpt lat="45.81312838693157" lon="11.595196187105106"><ele>980.0</ele><time>2026-05-01T12:16:53.989Z</time></trkpt><trkpt lat="45.81318786080223" lon="11.595144123969337"><ele>984.0</ele><time>2026-05-01T12:16:55.989Z</time></trkpt><trkpt lat="45.81322186048458" lon="11.595066190254487"><ele>984.0000000000001</ele><time>2026-05-01T12:16:59.13Z</time></trkpt><trkpt lat="45.8132448686946" lon="11.595167982399918"><ele>984.0</ele><time>2026-05-01T12:17:53.99Z</time></trkpt><trkpt lat="45.813318388646856" lon="11.595128016350841"><ele>984.0000000000001</ele><time>2026-05-01T12:17:56.99Z</time></trkpt><trkpt lat="45.81338475177245" lon="11.59512228841087"><ele>984.0000000000001</ele><time>2026-05-01T12:17:58.99Z</time></trkpt><trkpt lat="45.81344788726312" lon="11.595164104154106"><ele>984.0</ele><time>2026-05-01T12:18:01.99Z</time></trkpt><trkpt lat="45.81351984499828" lon="11.595204880608339"><ele>984.0000000000001</ele><time>2026-05-01T12:18:04.99Z</time></trkpt><trkpt lat="45.81358386219108" lon="11.595217933313913"><ele>984.0000000000001</ele><time>2026-05-01T12:18:06.99Z</time></trkpt><trkpt lat="45.81367099926508" lon="11.59515965237361"><ele>988.8000000000001</ele><time>2026-05-01T12:18:09.986Z</time></trkpt><trkpt lat="45.81376271833792" lon="11.595164886185673"><ele>993.6000000000001</ele><time>2026-05-01T12:18:11.986Z</time></trkpt><trkpt lat="45.81383761859581" lon="11.595222070420565"><ele>998.4</ele><time>2026-05-01T12:18:13.986Z</time></trkpt><trkpt lat="45.81391607675468" lon="11.594996467263604"><ele>1003.2</ele><time>2026-05-01T12:18:30.986Z</time></trkpt><trkpt lat="45.813988978771604" lon="11.595009660274266"><ele>1008.0</ele><time>2026-05-01T12:18:35.986Z</time></trkpt><trkpt lat="45.81394841990564" lon="11.595081793848191"><ele>1008.0</ele><time>2026-05-01T12:19:08.987Z</time></trkpt><trkpt lat="45.81399184457616" lon="11.595149639677338"><ele>1008.0</ele><time>2026-05-01T12:19:52.988Z</time></trkpt><trkpt lat="45.81402909667043" lon="11.5950764643246"><ele>1008.0</ele><time>2026-05-01T12:20:05.988Z</time></trkpt><trkpt lat="45.814041166328174" lon="11.594956260311902"><ele>1008.0</ele><time>2026-05-01T12:22:00.987Z</time></trkpt><trkpt lat="45.81389195170988" lon="11.594822834008351"><ele>1008.0</ele><time>2026-05-01T12:22:02.987Z</time></trkpt><trkpt lat="45.813845418641186" lon="11.59475162489265"><ele>1008.0</ele><time>2026-05-01T12:22:04.987Z</time></trkpt><trkpt lat="45.8139126485384" lon="11.594704945650614"><ele>1008.0</ele><time>2026-05-01T12:22:05.987Z</time></trkpt><trkpt lat="45.813928877909234" lon="11.594613745792335"><ele>1008.0</ele><time>2026-05-01T12:22:07.987Z</time></trkpt><trkpt lat="45.81393662367095" lon="11.594512541953085"><ele>1008.0</ele><time>2026-05-01T12:22:09.987Z</time></trkpt><trkpt lat="45.81401204653032" lon="11.594456961447607"><ele>1008.0</ele><time>2026-05-01T12:22:20.987Z</time></trkpt><trkpt lat="45.81427077221954" lon="11.594405345660784"><ele>1013.0</ele><time>2026-05-01T12:22:29.987Z</time></trkpt><trkpt lat="45.81434423439845" lon="11.594392730411085"><ele>1018.0</ele><time>2026-05-01T12:22:30.987Z</time></trkpt><trkpt lat="45.814414553797846" lon="11.594355195902228"><ele>1023.0</ele><time>2026-05-01T12:22:31.987Z</time></trkpt><trkpt lat="45.81448667769314" lon="11.594343255812273"><ele>1028.0</ele><time>2026-05-01T12:22:32.987Z</time></trkpt><trkpt lat="45.8144906432595" lon="11.594248198675686"><ele>1033.0</ele><time>2026-05-01T12:22:34.987Z</time></trkpt><trkpt lat="45.81454842946213" lon="11.594109664967759"><ele>1038.0</ele><time>2026-05-01T12:22:36.988Z</time></trkpt><trkpt lat="45.81460265121799" lon="11.593988102430641"><ele>1038.0</ele><time>2026-05-01T12:22:38.984Z</time></trkpt><trkpt lat="45.81464782240161" lon="11.593879476465258"><ele>1038.0</ele><time>2026-05-01T12:22:40.985Z</time></trkpt><trkpt lat="45.81473631278671" lon="11.593791583566777"><ele>1038.0</ele><time>2026-05-01T12:22:42.985Z</time></trkpt><trkpt lat="45.81481167790769" lon="11.593687030360718"><ele>1038.0</ele><time>2026-05-01T12:22:44.984Z</time></trkpt><trkpt lat="45.8148943850443" lon="11.59362339876049"><ele>1038.0</ele><time>2026-05-01T12:22:45.984Z</time></trkpt><trkpt lat="45.814976798953786" lon="11.59356094221802"><ele>1040.2</ele><time>2026-05-01T12:22:46.985Z</time></trkpt><trkpt lat="45.815018678526236" lon="11.593474157631718"><ele>1042.4</ele><time>2026-05-01T12:22:49.985Z</time></trkpt><trkpt lat="45.81508304984716" lon="11.593515114952783"><ele>1044.6000000000001</ele><time>2026-05-01T12:23:05.984Z</time></trkpt><trkpt lat="45.815175682412246" lon="11.593601086504828"><ele>1046.8</ele><time>2026-05-01T12:23:07.984Z</time></trkpt><trkpt lat="45.8153261951843" lon="11.593496592148343"><ele>1049.0</ele><time>2026-05-01T12:23:10.984Z</time></trkpt><trkpt lat="45.81538704124338" lon="11.59345891127738"><ele>1049.0</ele><time>2026-05-01T12:23:13.985Z</time></trkpt><trkpt lat="45.81540992020355" lon="11.593570031163177"><ele>1049.0</ele><time>2026-05-01T12:23:14.985Z</time></trkpt><trkpt lat="45.815394762574805" lon="11.593675242348331"><ele>1049.0</ele><time>2026-05-01T12:23:19.985Z</time></trkpt><trkpt lat="45.81542543110463" lon="11.593593654679486"><ele>1049.0</ele><time>2026-05-01T12:23:39.985Z</time></trkpt><trkpt lat="45.81536706527328" lon="11.593527406494154"><ele>1049.0</ele><time>2026-05-01T12:23:44.985Z</time></trkpt><trkpt lat="45.81529350273617" lon="11.5935541521005"><ele>1049.0</ele><time>2026-05-01T12:23:48.985Z</time></trkpt><trkpt lat="45.81522449212155" lon="11.593544134857112"><ele>1049.0</ele><time>2026-05-01T12:24:09.985Z</time></trkpt><trkpt lat="45.815146609542715" lon="11.593574321086194"><ele>1049.0</ele><time>2026-05-01T12:24:45.982Z</time></trkpt><trkpt lat="45.81522006231203" lon="11.593577865466287"><ele>1061.0</ele><time>2026-05-01T12:26:11.982Z</time></trkpt><trkpt lat="45.815283872583166" lon="11.593575113716303"><ele>1061.0</ele><time>2026-05-01T12:26:20.983Z</time></trkpt><trkpt lat="45.81535210009908" lon="11.59356501158594"><ele>1061.0</ele><time>2026-05-01T12:26:28.983Z</time></trkpt><trkpt lat="45.81537467522464" lon="11.593649390609645"><ele>1061.0</ele><time>2026-05-01T12:26:38.983Z</time></trkpt></trkseg></trk></gpx>